createdAt,value
2023-05-03T00:02:08.215Z,4.57
2023-05-03T00:05:17.811Z,6.97
2023-05-03T00:08:21.827Z,8.73
2023-05-03T00:11:24.014Z,8.87
2023-05-03T00:14:33.564Z,7.87
2023-05-03T00:17:36.791Z,8.33
2023-05-03T00:20:39.038Z,4.83
2023-05-03T00:23:41.180Z,6.77
2023-05-03T00:26:43.573Z,4.87
2023-05-03T00:29:46.716Z,16.00
2023-05-03T00:33:01.304Z,5.07
2023-05-03T00:36:10.839Z,5.57
2023-05-03T00:39:21.892Z,4.33
2023-05-03T00:42:24.209Z,3.43
2023-05-03T00:45:41.619Z,5.97
2023-05-03T00:48:45.314Z,4.33
2023-05-03T00:52:15.342Z,3.97
2023-05-03T00:55:25.339Z,4.83
2023-05-03T00:58:28.320Z,3.97
2023-05-03T01:01:31.458Z,3.90
2023-05-03T01:04:33.838Z,5.57
2023-05-03T01:08:03.993Z,2.57
2023-05-03T01:11:33.548Z,4.57
2023-05-03T01:15:00.722Z,5.27
2023-05-03T01:18:26.396Z,3.60
2023-05-03T01:21:45.310Z,4.80
2023-05-03T01:25:14.142Z,5.03
2023-05-03T01:28:24.436Z,2.60
2023-05-03T01:32:21.852Z,4.13
2023-05-03T01:35:46.143Z,4.33
2023-05-03T01:38:58.988Z,4.57
2023-05-03T01:42:11.764Z,6.90
2023-05-03T01:45:24.261Z,5.80
2023-05-03T01:48:29.511Z,8.23
2023-05-03T01:51:31.440Z,6.70
2023-05-03T01:54:33.804Z,8.40
2023-05-03T01:57:44.690Z,12.17
2023-05-03T02:00:52.445Z,12.03
2023-05-03T02:04:06.180Z,8.13
2023-05-03T02:07:09.299Z,7.53
2023-05-03T02:10:29.250Z,11.97
2023-05-03T02:13:32.246Z,9.53
2023-05-03T02:16:47.913Z,9.50
2023-05-03T02:19:59.910Z,7.80
2023-05-03T02:23:02.087Z,8.97
2023-05-03T02:26:04.839Z,9.67
2023-05-03T02:29:08.760Z,9.00
2023-05-03T02:32:15.688Z,10.87
2023-05-03T02:35:28.997Z,10.03
2023-05-03T02:38:31.643Z,7.50
2023-05-03T02:41:37.854Z,7.67
2023-05-03T02:44:42.584Z,10.93
2023-05-03T02:47:44.674Z,7.23
2023-05-03T02:50:56.096Z,7.20
2023-05-03T02:54:01.351Z,9.50
2023-05-03T02:57:04.543Z,7.87
2023-05-03T03:00:07.194Z,9.60
2023-05-03T03:03:14.048Z,8.50
2023-05-03T03:06:31.595Z,9.70
2023-05-03T03:09:34.014Z,9.80
2023-05-03T03:12:36.881Z,9.27
2023-05-03T03:15:43.812Z,9.83
2023-05-03T03:18:46.754Z,9.90
2023-05-03T03:21:55.808Z,10.57
2023-05-03T03:24:59.298Z,9.80
2023-05-03T03:28:01.867Z,9.17
2023-05-03T03:31:06.599Z,12.13
2023-05-03T03:34:14.624Z,12.77
2023-05-03T03:37:16.704Z,22.67
2023-05-03T03:40:20.997Z,16.00
2023-05-03T03:43:25.850Z,22.93
2023-05-03T03:46:30.101Z,37.20
2023-05-03T03:49:32.128Z,28.70
2023-05-03T03:52:36.082Z,36.97
2023-05-03T03:55:40.986Z,40.47
2023-05-03T03:58:43.257Z,36.73
2023-05-03T04:01:54.736Z,28.07
2023-05-03T04:05:19.770Z,16.37
2023-05-03T04:08:22.519Z,23.03
2023-05-03T04:11:27.974Z,15.13
2023-05-03T04:14:33.160Z,22.40
2023-05-03T04:17:44.122Z,14.03
2023-05-03T04:20:49.966Z,13.23
2023-05-03T04:23:58.012Z,19.67
2023-05-03T04:27:06.181Z,12.03
2023-05-03T04:30:15.433Z,14.60
2023-05-03T04:33:17.490Z,10.17
2023-05-03T04:36:19.776Z,7.73
2023-05-03T04:39:37.086Z,10.53
2023-05-03T04:42:41.149Z,9.73
2023-05-03T04:45:57.179Z,11.17
2023-05-03T04:49:08.468Z,9.70
2023-05-03T04:52:23.216Z,10.10
2023-05-03T04:55:29.537Z,10.77
2023-05-03T04:58:31.502Z,11.90
2023-05-03T05:01:33.948Z,11.17
2023-05-03T05:04:36.166Z,11.50
2023-05-03T05:07:41.435Z,10.17
2023-05-03T05:10:43.496Z,10.20
2023-05-03T05:13:45.896Z,9.00
2023-05-03T05:16:47.938Z,8.30
2023-05-03T05:20:11.793Z,9.37
2023-05-03T05:23:27.525Z,10.00
2023-05-03T05:26:29.866Z,8.47
2023-05-03T05:29:31.968Z,9.17
2023-05-03T05:32:34.396Z,12.37
2023-05-03T05:35:39.186Z,8.83
2023-05-03T05:38:41.748Z,10.20
2023-05-03T05:41:46.511Z,9.77
2023-05-03T05:44:53.215Z,12.37
2023-05-03T05:47:55.267Z,7.47
2023-05-03T05:51:00.150Z,11.43
2023-05-03T05:54:07.841Z,7.97
2023-05-03T05:57:10.780Z,8.93
2023-05-03T06:00:17.193Z,8.80
2023-05-03T06:03:19.532Z,7.97
2023-05-03T06:06:21.531Z,7.03
2023-05-03T06:09:57.049Z,10.50
2023-05-03T06:12:59.311Z,10.03
2023-05-03T06:16:02.106Z,9.88
2023-05-03T06:23:13.794Z,7.57
2023-05-03T06:26:20.198Z,12.15
2023-05-03T06:29:25.616Z,8.90
2023-05-03T06:32:27.876Z,6.63
2023-05-03T06:35:34.360Z,6.07
2023-05-03T06:38:46.341Z,6.35
2023-05-03T06:41:57.676Z,8.00
2023-05-03T06:45:00.132Z,5.63
2023-05-03T06:48:10.498Z,7.45
2023-05-03T06:51:17.017Z,5.68
2023-05-03T06:55:03.249Z,6.65
2023-05-03T06:58:20.040Z,8.20
2023-05-03T07:01:30.997Z,6.05
2023-05-03T07:04:34.885Z,9.20
2023-05-03T07:07:37.036Z,5.18
2023-05-03T07:11:36.415Z,5.80
2023-05-03T07:15:19.345Z,5.88
2023-05-03T07:18:25.779Z,4.95
2023-05-03T07:21:29.561Z,3.53
2023-05-03T07:28:47.923Z,4.38
2023-05-03T07:32:22.837Z,5.43
2023-05-03T07:35:39.880Z,4.63
2023-05-03T07:38:47.815Z,6.47
2023-05-03T07:41:52.452Z,3.45
2023-05-03T07:44:55.484Z,3.30
2023-05-03T07:47:58.580Z,4.50
2023-05-03T07:51:10.127Z,4.78
2023-05-03T07:54:43.048Z,5.72
2023-05-03T07:57:45.376Z,4.78
2023-05-03T08:00:47.410Z,3.83
2023-05-03T08:03:50.753Z,4.05
2023-05-03T08:06:53.031Z,5.03
2023-05-03T08:09:56.706Z,4.13
2023-05-03T08:13:17.234Z,4.10
2023-05-03T08:16:37.447Z,2.78
2023-05-03T08:19:48.467Z,5.43
2023-05-03T08:22:50.681Z,6.30
2023-05-03T08:25:55.061Z,5.43
2023-05-03T08:28:57.399Z,2.90
2023-05-03T08:31:59.767Z,3.50
2023-05-03T08:35:05.764Z,6.30
2023-05-03T08:38:07.811Z,5.25
2023-05-03T08:41:26.170Z,7.38
2023-05-03T08:45:06.151Z,3.80
2023-05-03T08:48:13.828Z,7.57
2023-05-03T08:51:19.713Z,3.28
2023-05-03T08:54:22.113Z,5.53
2023-05-03T08:57:25.429Z,4.20
2023-05-03T09:00:29.736Z,7.20
2023-05-03T09:03:36.273Z,6.00
2023-05-03T09:06:39.270Z,4.03
2023-05-03T09:09:41.574Z,3.55
2023-05-03T09:12:46.793Z,4.68
2023-05-03T09:15:56.965Z,3.55
2023-05-03T09:19:00.799Z,4.72
2023-05-03T09:22:19.413Z,5.72
2023-05-03T09:25:43.324Z,4.88
2023-05-03T09:28:47.857Z,5.40
2023-05-03T09:32:02.524Z,5.95
2023-05-03T09:35:10.232Z,5.03
2023-05-03T09:38:41.693Z,5.35
2023-05-03T09:42:12.308Z,8.15
2023-05-03T09:45:23.945Z,7.97
2023-05-03T09:48:27.732Z,4.93
2023-05-03T09:51:32.341Z,7.18
2023-05-03T09:55:13.540Z,2.80
2023-05-03T09:58:35.025Z,4.20
2023-05-03T10:01:39.899Z,3.83
2023-05-03T10:04:44.436Z,2.60
2023-05-03T10:11:27.483Z,4.40
2023-05-03T10:14:29.801Z,3.20
2023-05-03T10:20:58.409Z,9.63
2023-05-03T10:24:20.249Z,7.05
2023-05-03T10:27:26.189Z,4.72
2023-05-03T10:30:32.729Z,6.50
2023-05-03T10:33:35.538Z,4.15
2023-05-03T10:36:48.885Z,3.40
2023-05-03T10:39:53.459Z,5.38
2023-05-03T10:43:00.183Z,6.80
2023-05-03T10:46:08.773Z,4.30
2023-05-03T10:49:37.125Z,4.82
2023-05-03T10:52:42.337Z,5.03
2023-05-03T10:56:18.546Z,5.13
2023-05-03T10:59:22.251Z,4.45
2023-05-03T11:02:32.784Z,5.15
2023-05-03T11:05:38.346Z,4.50
2023-05-03T11:08:43.640Z,6.78
2023-05-03T11:11:51.387Z,3.08
2023-05-03T11:15:03.567Z,4.47
2023-05-03T11:18:12.652Z,8.38
2023-05-03T11:21:15.932Z,20.40
2023-05-03T11:24:18.371Z,5.18
2023-05-03T11:27:26.514Z,4.72
2023-05-03T11:30:35.328Z,5.00
2023-05-03T11:33:47.992Z,5.10
2023-05-03T11:36:53.647Z,5.88
2023-05-03T11:39:55.838Z,3.50
2023-05-03T11:43:01.214Z,78.90
2023-05-03T11:46:06.141Z,7.60
2023-05-03T11:49:10.437Z,17.17
2023-05-03T11:52:12.482Z,6.20
2023-05-03T11:55:15.248Z,10.15
2023-05-03T11:58:21.609Z,32.22
2023-05-03T12:01:27.345Z,4.45
2023-05-03T12:04:30.986Z,5.63
2023-05-03T12:07:41.224Z,7.15
2023-05-03T12:10:45.258Z,9.68
2023-05-03T12:14:00.079Z,4.57
2023-05-03T12:17:07.525Z,6.35
2023-05-03T12:23:55.440Z,6.40
2023-05-03T12:27:00.277Z,4.30
2023-05-03T12:30:04.963Z,5.90
2023-05-03T12:33:10.457Z,3.63
2023-05-03T12:36:14.811Z,3.47
2023-05-03T12:39:20.117Z,4.07
2023-05-03T12:42:34.068Z,5.22
2023-05-03T12:46:30.291Z,4.15
2023-05-03T12:49:59.528Z,3.95
2023-05-03T12:53:03.036Z,5.50
2023-05-03T12:56:13.179Z,6.03
2023-05-03T12:59:40.464Z,5.00
2023-05-03T13:05:49.732Z,4.55
2023-05-03T13:09:00.699Z,2.50
2023-05-03T13:12:05.264Z,3.92
2023-05-03T13:15:08.935Z,2.58
2023-05-03T13:18:11.276Z,2.50
2023-05-03T13:25:08.685Z,3.75
2023-05-03T13:28:10.728Z,2.63
2023-05-03T13:31:12.912Z,3.28
2023-05-03T13:34:14.896Z,4.38
2023-05-03T13:37:18.913Z,4.95
2023-05-03T13:40:31.842Z,2.78
2023-05-03T13:43:52.974Z,6.90
2023-05-03T13:46:57.649Z,3.17
2023-05-03T13:50:23.315Z,4.75
2023-05-03T13:53:52.884Z,2.30
2023-05-03T13:56:54.854Z,4.38
2023-05-03T13:59:57.085Z,4.95
2023-05-03T14:02:59.170Z,3.85
2023-05-03T14:06:03.216Z,5.18
2023-05-03T14:09:06.447Z,4.57
2023-05-03T14:12:17.764Z,6.90
2023-05-03T14:15:31.219Z,5.93
2023-05-03T14:18:33.810Z,3.20
2023-05-03T14:21:36.281Z,2.72
2023-05-03T14:24:50.644Z,2.78
2023-05-03T14:28:04.107Z,4.65
2023-05-03T14:31:07.676Z,4.80
2023-05-03T14:34:09.865Z,4.47
2023-05-03T14:37:12.730Z,5.88
2023-05-03T14:40:16.012Z,3.30
2023-05-03T14:43:18.239Z,3.20
2023-05-03T14:46:20.236Z,4.80
2023-05-03T14:49:22.855Z,5.28
2023-05-03T14:52:24.896Z,3.10
2023-05-03T14:55:27.307Z,3.53
2023-05-03T14:58:29.301Z,2.38
2023-05-03T15:01:31.710Z,2.75
2023-05-03T15:04:37.325Z,2.30
2023-05-03T15:07:40.092Z,6.15
2023-05-03T15:10:44.513Z,3.25
2023-05-03T15:13:53.210Z,6.70
2023-05-03T15:16:57.847Z,6.95
2023-05-03T15:20:03.122Z,4.70
2023-05-03T15:23:05.407Z,8.73
2023-05-03T15:26:08.087Z,3.92
2023-05-03T15:29:10.783Z,4.40
2023-05-03T15:32:13.114Z,3.30
2023-05-03T15:35:20.047Z,3.25
2023-05-03T15:38:27.602Z,2.65
2023-05-03T15:41:31.987Z,4.93
2023-05-03T15:44:38.147Z,6.60
2023-05-03T15:47:43.994Z,2.78
2023-05-03T15:50:46.337Z,6.18
2023-05-03T15:53:48.985Z,7.15
2023-05-03T15:56:53.739Z,4.20
2023-05-03T15:59:58.024Z,3.75
2023-05-03T16:03:00.410Z,2.85
2023-05-03T16:06:02.927Z,10.35
2023-05-03T16:09:06.950Z,4.70
2023-05-03T16:12:09.102Z,6.03
2023-05-03T16:15:12.241Z,5.72
2023-05-03T16:18:14.357Z,13.00
2023-05-03T16:21:18.462Z,7.25
2023-05-03T16:24:23.659Z,9.70
2023-05-03T16:27:35.684Z,5.47
2023-05-03T16:31:45.229Z,10.65
2023-05-03T16:34:50.470Z,10.93
2023-05-03T16:37:52.996Z,11.95
2023-05-03T16:40:55.492Z,8.60
2023-05-03T16:43:57.478Z,8.23
2023-05-03T16:47:02.097Z,4.82
2023-05-03T16:50:08.056Z,8.45
2023-05-03T16:53:12.028Z,5.57
2023-05-03T16:56:13.978Z,8.57
2023-05-03T16:59:16.864Z,6.57
2023-05-03T17:02:18.885Z,5.25
2023-05-03T17:05:21.339Z,7.43
2023-05-03T17:08:23.287Z,7.28
2023-05-03T17:11:44.693Z,7.43
2023-05-03T17:14:48.499Z,59.08
2023-05-03T17:18:04.430Z,5.70
2023-05-03T17:21:15.687Z,7.03
2023-05-03T17:24:44.981Z,5.93
2023-05-03T17:27:53.201Z,3.33
2023-05-03T17:30:57.356Z,8.02
2023-05-03T17:34:00.495Z,3.20
2023-05-03T17:37:02.918Z,7.70
2023-05-03T17:40:07.439Z,8.05
2023-05-03T17:43:13.033Z,8.85
2023-05-03T17:46:17.786Z,14.53
2023-05-03T17:49:29.634Z,12.18
2023-05-03T17:52:33.390Z,5.50
2023-05-03T17:55:38.090Z,10.45
2023-05-03T17:59:00.544Z,33.40
2023-05-03T18:02:38.967Z,19.07
2023-05-03T18:05:46.170Z,10.10
2023-05-03T18:08:48.394Z,13.60
2023-05-03T18:11:56.057Z,12.43
2023-05-03T18:15:01.339Z,11.00
2023-05-03T18:18:03.788Z,8.38
2023-05-03T18:21:06.352Z,5.17
2023-05-03T18:24:09.407Z,14.27
2023-05-03T18:27:14.848Z,16.47
2023-05-03T18:30:29.449Z,9.73
2023-05-03T18:33:40.500Z,6.63
2023-05-03T18:36:48.944Z,17.20
2023-05-03T18:39:52.547Z,7.10
2023-05-03T18:43:01.055Z,10.47
2023-05-03T18:46:06.104Z,21.17
2023-05-03T18:49:23.404Z,11.60
2023-05-03T18:52:28.174Z,18.23
2023-05-03T18:55:35.369Z,22.40
2023-05-03T18:58:47.475Z,60.60
2023-05-03T19:02:16.176Z,85.10
2023-05-03T19:05:22.864Z,80.67
2023-05-03T19:08:45.025Z,64.93
2023-05-03T19:11:53.450Z,74.40
2023-05-03T19:15:06.499Z,63.03
2023-05-03T19:18:11.662Z,67.07
2023-05-03T19:21:31.252Z,53.23
2023-05-03T19:25:33.245Z,55.70
2023-05-03T19:29:01.824Z,32.00
2023-05-03T19:32:23.795Z,32.47
2023-05-03T19:35:43.673Z,30.33
2023-05-03T19:39:14.581Z,21.60
2023-05-03T19:42:27.032Z,35.83
2023-05-03T19:45:36.142Z,17.47
2023-05-03T19:48:49.362Z,39.50
2023-05-03T19:52:00.018Z,33.57
2023-05-03T19:55:07.613Z,26.00
2023-05-03T19:58:09.654Z,21.70
2023-05-03T20:01:26.985Z,28.97
2023-05-03T20:04:34.599Z,24.97
2023-05-03T20:07:56.102Z,39.10
2023-05-03T20:11:09.835Z,37.17
2023-05-03T20:14:14.831Z,34.47
2023-05-03T20:17:42.496Z,24.33
2023-05-03T20:20:55.313Z,26.43
2023-05-03T20:24:15.307Z,48.73
2023-05-03T20:27:20.713Z,104.57
2023-05-03T20:30:31.172Z,106.20
2023-05-03T20:33:33.380Z,95.37
2023-05-03T20:36:38.972Z,117.73
2023-05-03T20:39:50.375Z,104.80
2023-05-03T20:43:02.536Z,131.30
2023-05-03T20:46:12.675Z,151.67
2023-05-03T20:49:15.006Z,187.33
2023-05-03T20:52:20.987Z,192.07
2023-05-03T20:55:23.009Z,149.50
2023-05-03T20:59:05.283Z,143.27
2023-05-03T21:02:12.405Z,110.97
2023-05-03T21:05:50.391Z,93.77
2023-05-03T21:09:17.617Z,70.87
2023-05-03T21:16:26.318Z,72.13
2023-05-03T21:19:47.767Z,71.43
2023-05-03T21:23:37.712Z,64.67
2023-05-03T21:26:43.224Z,80.83
2023-05-03T21:30:01.095Z,74.20
2023-05-03T21:33:22.557Z,80.20
2023-05-03T21:36:25.221Z,82.03
2023-05-03T21:40:01.488Z,74.53
2023-05-03T21:43:17.440Z,78.33
2023-05-03T21:46:19.522Z,69.80
2023-05-03T21:49:22.225Z,72.00
2023-05-03T21:53:09.831Z,68.10
2023-05-03T21:56:29.753Z,70.57
2023-05-03T21:59:46.810Z,70.17
2023-05-03T22:03:23.526Z,74.93
2023-05-03T22:10:08.895Z,65.30
2023-05-03T22:13:35.512Z,63.70
2023-05-03T22:16:43.723Z,59.83
2023-05-03T22:20:23.811Z,59.33
2023-05-03T22:23:30.358Z,55.47
2023-05-03T22:26:57.019Z,58.40
2023-05-03T22:30:18.587Z,65.53
2023-05-03T22:33:28.480Z,62.63
2023-05-03T22:40:34.654Z,44.60
2023-05-03T22:43:49.028Z,57.17
2023-05-03T22:47:14.050Z,57.37
2023-05-03T22:50:48.274Z,58.00
2023-05-03T22:54:13.920Z,49.90
2023-05-03T22:57:16.421Z,57.10
2023-05-03T23:00:49.131Z,54.73
2023-05-03T23:08:21.272Z,49.37
2023-05-03T23:11:23.253Z,54.40
2023-05-03T23:14:58.277Z,54.97
2023-05-03T23:18:11.552Z,48.53
2023-05-03T23:21:38.367Z,49.60
2023-05-03T23:24:40.858Z,43.60
2023-05-03T23:27:43.401Z,49.63
2023-05-03T23:31:17.297Z,42.47
2023-05-03T23:34:49.076Z,52.77
2023-05-03T23:37:58.580Z,45.80
2023-05-03T23:41:50.131Z,45.30
2023-05-03T23:48:36.812Z,53.07
2023-05-03T23:52:09.047Z,48.70
2023-05-03T23:55:20.940Z,39.43
2023-05-03T23:58:43.105Z,38.23
